createdAt,value
2022-12-13T00:03:01.917Z,-7.09
2022-12-13T00:08:03.683Z,-7.33
2022-12-13T00:13:05.266Z,-7.31
2022-12-13T00:18:06.924Z,-7.34
2022-12-13T00:23:08.434Z,-7.39
2022-12-13T00:28:10.263Z,-7.37
2022-12-13T00:33:11.833Z,-7.29
2022-12-13T00:38:13.353Z,-7.27
2022-12-13T00:43:15.028Z,-7.35
2022-12-13T00:48:16.683Z,-7.38
2022-12-13T00:53:18.219Z,-7.41
2022-12-13T00:58:19.730Z,-7.44
2022-12-13T01:03:25.478Z,-7.41
2022-12-13T01:08:29.039Z,-7.60
2022-12-13T01:13:31.954Z,-7.68
2022-12-13T01:18:34.003Z,-7.63
2022-12-13T01:23:35.565Z,-7.74
2022-12-13T01:28:37.382Z,-7.73
2022-12-13T01:33:40.133Z,-7.69
2022-12-13T01:38:42.343Z,-7.79
2022-12-13T01:43:43.896Z,-7.70
2022-12-13T01:48:59.466Z,-7.69
2022-12-13T01:54:04.062Z,-7.89
2022-12-13T01:59:07.265Z,-7.87
2022-12-13T02:04:08.854Z,-7.85
2022-12-13T02:09:11.278Z,-7.86
2022-12-13T02:14:12.785Z,-7.86
2022-12-13T02:19:14.297Z,-7.89
2022-12-13T02:24:56.376Z,-7.91
2022-12-13T02:30:10.156Z,-7.92
2022-12-13T02:35:22.486Z,-8.00
2022-12-13T02:40:34.113Z,-8.08
2022-12-13T02:45:46.439Z,-8.19
2022-12-13T02:50:50.701Z,-8.31
2022-12-13T02:55:52.211Z,-8.21
2022-12-13T03:01:28.736Z,-8.15
2022-12-13T03:06:45.401Z,-8.23
2022-12-13T03:12:17.159Z,-8.25
2022-12-13T03:17:21.526Z,-8.16
2022-12-13T03:22:23.187Z,-8.23
2022-12-13T03:27:24.925Z,-8.36
2022-12-13T03:32:26.548Z,-8.38
2022-12-13T03:37:28.439Z,-8.49
2022-12-13T03:42:29.952Z,-8.44
2022-12-13T03:47:31.522Z,-8.41
2022-12-13T03:52:33.008Z,-8.46
2022-12-13T03:57:35.104Z,-8.51
2022-12-13T04:02:36.814Z,-8.40
2022-12-13T04:07:38.406Z,-8.37
2022-12-13T04:13:00.380Z,-8.38
2022-12-13T04:18:02.388Z,-8.41
2022-12-13T04:23:10.202Z,-8.41
2022-12-13T04:28:12.439Z,-8.43
2022-12-13T04:33:24.495Z,-8.44
2022-12-13T04:38:26.092Z,-8.49
2022-12-13T04:43:27.590Z,-8.52
2022-12-13T04:48:30.743Z,-8.57
2022-12-13T04:53:32.683Z,-8.74
2022-12-13T04:58:34.511Z,-8.83
2022-12-13T05:03:36.405Z,-8.88
2022-12-13T05:08:38.345Z,-8.84
2022-12-13T05:13:39.991Z,-8.89
2022-12-13T05:18:42.420Z,-8.93
2022-12-13T05:23:43.932Z,-8.89
2022-12-13T05:28:46.158Z,-8.82
2022-12-13T05:33:47.775Z,-8.87
2022-12-13T05:38:49.497Z,-8.80
2022-12-13T05:43:51.642Z,-8.77
2022-12-13T05:48:53.275Z,-8.80
2022-12-13T05:53:54.997Z,-8.79
2022-12-13T05:58:57.269Z,-8.90
2022-12-13T06:03:58.891Z,-8.79
2022-12-13T06:09:01.726Z,-8.86
2022-12-13T06:14:03.488Z,-8.83
2022-12-13T06:19:24.548Z,-8.86
2022-12-13T06:24:27.525Z,-8.94
2022-12-13T06:29:29.026Z,-9.03
2022-12-13T06:34:35.671Z,-9.04
2022-12-13T06:39:37.646Z,-9.05
2022-12-13T06:44:41.732Z,-9.05
2022-12-13T06:49:44.357Z,-9.00
2022-12-13T06:54:46.881Z,-9.07
2022-12-13T06:59:48.386Z,-9.11
2022-12-13T07:04:50.975Z,-9.12
2022-12-13T07:09:53.494Z,-9.14
2022-12-13T07:14:56.057Z,-9.21
2022-12-13T07:19:57.624Z,-9.16
2022-12-13T07:25:04.853Z,-9.20
2022-12-13T07:30:06.787Z,-9.14
2022-12-13T07:35:08.701Z,-9.02
2022-12-13T07:40:11.003Z,-9.03
2022-12-13T07:45:12.577Z,-9.26
2022-12-13T07:50:24.588Z,-9.33
2022-12-13T07:55:33.655Z,-9.10
2022-12-13T08:00:38.146Z,-9.06
2022-12-13T08:05:39.810Z,-9.05
2022-12-13T08:10:41.458Z,-9.15
2022-12-13T08:15:46.680Z,-8.95
2022-12-13T08:20:59.230Z,-8.81
2022-12-13T08:26:01.877Z,-8.68
2022-12-13T08:31:11.721Z,-8.51
2022-12-13T08:36:16.471Z,-8.32
2022-12-13T08:41:18.164Z,-8.16
2022-12-13T08:46:19.798Z,-7.87
2022-12-13T08:51:28.359Z,-7.75
2022-12-13T08:56:36.143Z,-7.45
2022-12-13T09:01:37.793Z,-7.28
2022-12-13T09:06:42.260Z,-7.09
2022-12-13T09:11:43.898Z,-6.92
2022-12-13T09:16:50.886Z,-6.68
2022-12-13T09:21:53.053Z,-6.45
2022-12-13T09:27:09.601Z,-6.19
2022-12-13T09:32:11.855Z,-5.91
2022-12-13T09:37:14.683Z,-5.70
2022-12-13T09:42:30.619Z,-5.50
2022-12-13T09:47:46.715Z,-5.26
2022-12-13T09:52:49.048Z,-5.15
2022-12-13T09:57:52.427Z,-4.93
2022-12-13T10:03:00.199Z,-4.76
2022-12-13T10:08:08.674Z,-4.53
2022-12-13T10:13:20.568Z,-4.33
2022-12-13T10:18:34.030Z,-4.12
2022-12-13T10:23:59.873Z,-4.01
2022-12-13T10:29:05.666Z,-3.89
2022-12-13T10:34:17.426Z,-3.58
2022-12-13T10:39:40.751Z,-3.14
2022-12-13T10:44:42.831Z,-2.59
2022-12-13T10:49:49.200Z,-2.11
2022-12-13T10:54:51.262Z,-2.06
2022-12-13T10:59:53.003Z,-1.78
2022-12-13T11:04:54.848Z,-1.51
2022-12-13T11:10:05.072Z,-1.58
2022-12-13T11:15:08.865Z,-1.52
2022-12-13T11:20:38.014Z,-1.14
2022-12-13T11:25:42.184Z,-1.95
2022-12-13T11:31:11.081Z,-1.99
2022-12-13T11:36:55.802Z,-1.85
2022-12-13T11:42:16.357Z,-1.63
2022-12-13T11:47:38.025Z,-1.51
2022-12-13T11:52:44.812Z,-1.16
2022-12-13T11:57:46.589Z,-1.15
2022-12-13T12:02:56.832Z,-1.52
2022-12-13T12:08:31.562Z,-1.61
2022-12-13T12:14:13.049Z,-1.72
2022-12-13T12:19:17.165Z,-1.78
2022-12-13T12:24:40.727Z,-0.98
2022-12-13T12:29:55.945Z,-0.51
2022-12-13T12:35:13.848Z,-0.56
2022-12-13T12:40:52.146Z,-0.47
2022-12-13T12:46:15.376Z,-0.26
2022-12-13T12:51:28.773Z,-0.32
2022-12-13T12:56:44.729Z,-0.96
2022-12-13T13:02:08.270Z,-1.66
2022-12-13T13:07:28.608Z,-1.43
2022-12-13T13:12:43.009Z,-1.67
2022-12-13T13:17:46.305Z,-1.83
2022-12-13T13:23:04.002Z,-1.95
2022-12-13T13:28:18.178Z,-1.88
2022-12-13T13:33:51.472Z,-1.94
2022-12-13T13:38:54.539Z,-2.21
2022-12-13T13:43:56.226Z,-2.21
2022-12-13T13:49:09.201Z,-2.37
2022-12-13T13:54:16.968Z,-2.61
2022-12-13T13:59:32.048Z,-2.51
2022-12-13T14:04:42.939Z,-2.62
2022-12-13T14:10:04.793Z,-3.36
2022-12-13T14:15:31.577Z,-3.40
2022-12-13T14:20:42.564Z,-3.11
2022-12-13T14:26:13.226Z,-3.25
2022-12-13T14:31:25.200Z,-3.29
2022-12-13T14:36:35.192Z,-3.59
2022-12-13T14:41:49.613Z,-3.84
2022-12-13T14:47:06.990Z,-3.78
2022-12-13T14:52:26.980Z,-3.83
2022-12-13T14:57:32.232Z,-3.79
2022-12-13T15:02:33.925Z,-3.84
2022-12-13T15:07:39.674Z,-3.95
2022-12-13T15:12:44.139Z,-4.01
2022-12-13T15:17:45.973Z,-4.02
2022-12-13T15:23:06.176Z,-4.12
2022-12-13T15:28:21.571Z,-4.13
2022-12-13T15:33:33.394Z,-4.26
2022-12-13T15:38:41.129Z,-4.35
2022-12-13T15:43:46.180Z,-4.44
2022-12-13T15:48:49.127Z,-4.59
2022-12-13T15:54:18.651Z,-4.78
2022-12-13T15:59:30.354Z,-4.90
2022-12-13T16:04:33.314Z,-4.92
2022-12-13T16:09:38.504Z,-4.92
2022-12-13T16:14:48.886Z,-5.19
2022-12-13T16:19:53.042Z,-5.40
2022-12-13T16:24:56.567Z,-5.43
2022-12-13T16:29:58.482Z,-5.40
2022-12-13T16:35:00.179Z,-5.38
2022-12-13T16:40:23.114Z,-5.42
2022-12-13T16:45:41.637Z,-5.38
2022-12-13T16:50:50.083Z,-5.39
2022-12-13T16:55:59.696Z,-5.57
2022-12-13T17:01:02.682Z,-5.60
2022-12-13T17:06:05.608Z,-5.48
2022-12-13T17:11:14.633Z,-5.54
2022-12-13T17:16:19.365Z,-5.40
2022-12-13T17:21:25.482Z,-5.39
2022-12-13T17:26:28.548Z,-5.42
2022-12-13T17:31:35.224Z,-5.32
2022-12-13T17:36:38.457Z,-5.27
2022-12-13T17:41:40.290Z,-5.23
2022-12-13T17:46:41.901Z,-5.23
2022-12-13T17:51:56.120Z,-5.18
2022-12-13T17:56:57.905Z,-5.13
2022-12-13T18:01:59.539Z,-5.15
2022-12-13T18:07:01.184Z,-5.12
2022-12-13T18:12:02.932Z,-5.06
2022-12-13T18:17:04.876Z,-5.03
2022-12-13T18:22:06.562Z,-4.93
2022-12-13T18:27:08.248Z,-4.92
2022-12-13T18:32:10.477Z,-4.93
2022-12-13T18:37:12.070Z,-4.94
2022-12-13T18:42:13.670Z,-4.92
2022-12-13T18:47:20.928Z,-4.92
2022-12-13T18:52:23.814Z,-4.95
2022-12-13T18:57:25.344Z,-5.00
2022-12-13T19:02:32.639Z,-5.14
2022-12-13T19:07:36.213Z,-5.23
2022-12-13T19:12:38.039Z,-5.23
2022-12-13T19:17:39.919Z,-5.42
2022-12-13T19:22:41.540Z,-5.34
2022-12-13T19:27:46.714Z,-5.36
2022-12-13T19:32:48.473Z,-5.45
2022-12-13T19:37:50.026Z,-5.48
2022-12-13T19:42:51.586Z,-5.47
2022-12-13T19:47:53.150Z,-5.55
2022-12-13T19:52:54.749Z,-5.58
2022-12-13T19:57:56.495Z,-5.60
2022-12-13T20:02:59.244Z,-5.57
2022-12-13T20:08:00.940Z,-5.72
2022-12-13T20:13:02.812Z,-5.76
2022-12-13T20:18:04.442Z,-5.69
2022-12-13T20:23:06.084Z,-5.65
2022-12-13T20:28:12.683Z,-5.55
2022-12-13T20:33:17.508Z,-5.57
2022-12-13T20:38:19.193Z,-5.60
2022-12-13T20:43:20.708Z,-5.76
2022-12-13T20:48:22.329Z,-5.76
2022-12-13T20:53:24.261Z,-5.81
2022-12-13T20:58:27.423Z,-5.91
2022-12-13T21:03:29.139Z,-5.87
2022-12-13T21:08:49.440Z,-5.86
2022-12-13T21:14:06.961Z,-5.71
2022-12-13T21:19:12.623Z,-5.72
2022-12-13T21:24:16.150Z,-5.46
2022-12-13T21:29:18.926Z,-5.49
2022-12-13T21:34:21.591Z,-5.26
2022-12-13T21:39:29.458Z,-5.31
2022-12-13T21:44:31.076Z,-5.31
2022-12-13T21:49:32.739Z,-5.29
2022-12-13T21:54:34.295Z,-5.26
2022-12-13T21:59:35.894Z,-5.30
2022-12-13T22:04:38.946Z,-5.31
2022-12-13T22:09:40.645Z,-5.18
2022-12-13T22:14:42.159Z,-5.07
2022-12-13T22:19:43.822Z,-4.98
2022-12-13T22:24:53.779Z,-5.01
2022-12-13T22:29:57.734Z,-5.00
2022-12-13T22:34:59.602Z,-4.93
2022-12-13T22:40:01.124Z,-4.92
2022-12-13T22:45:02.684Z,-4.99
2022-12-13T22:50:04.962Z,-4.94
2022-12-13T22:55:07.128Z,-4.92
2022-12-13T23:00:10.429Z,-4.90
2022-12-13T23:05:15.142Z,-4.82
2022-12-13T23:10:35.554Z,-4.83
2022-12-13T23:15:39.154Z,-4.85
2022-12-13T23:20:40.843Z,-4.83
2022-12-13T23:25:42.469Z,-4.89
2022-12-13T23:30:44.106Z,-4.86
2022-12-13T23:35:45.745Z,-4.86
2022-12-13T23:40:47.315Z,-4.80
2022-12-13T23:45:48.903Z,-4.73
2022-12-13T23:50:53.743Z,-4.85
2022-12-13T23:56:01.733Z,-4.84
